sensor_id;sensor_type;location;lat;lon;timestamp;P1;durP1;ratioP1;P2;durP2;ratioP2
74064;SDS011;62421;51.412;5.432;2024-03-23T00:53:57;15.73;;;4.68;;
74064;SDS011;62421;51.412;5.432;2024-03-23T00:56:23;23.63;;;5.03;;
74064;SDS011;62421;51.412;5.432;2024-03-23T00:58:49;20.37;;;4.90;;
74064;SDS011;62421;51.412;5.432;2024-03-23T01:01:15;18.15;;;4.93;;
74064;SDS011;62421;51.412;5.432;2024-03-23T01:03:40;23.70;;;5.70;;
74064;SDS011;62421;51.412;5.432;2024-03-23T01:06:05;19.47;;;6.57;;
74064;SDS011;62421;51.412;5.432;2024-03-23T01:08:31;18.70;;;4.40;;
74064;SDS011;62421;51.412;5.432;2024-03-23T01:10:57;24.02;;;4.53;;
74064;SDS011;62421;51.412;5.432;2024-03-23T01:13:23;21.10;;;4.97;;
74064;SDS011;62421;51.412;5.432;2024-03-23T01:15:49;15.43;;;4.07;;
74064;SDS011;62421;51.412;5.432;2024-03-23T01:18:16;15.47;;;4.33;;
74064;SDS011;62421;51.412;5.432;2024-03-23T01:20:42;14.20;;;3.88;;
74064;SDS011;62421;51.412;5.432;2024-03-23T01:23:08;19.20;;;4.73;;
74064;SDS011;62421;51.412;5.432;2024-03-23T01:25:33;15.38;;;4.95;;
74064;SDS011;62421;51.412;5.432;2024-03-23T01:27:58;16.77;;;4.65;;
74064;SDS011;62421;51.412;5.432;2024-03-23T01:30:24;22.63;;;3.83;;
74064;SDS011;62421;51.412;5.432;2024-03-23T01:32:49;20.93;;;5.03;;
74064;SDS011;62421;51.412;5.432;2024-03-23T01:35:14;20.83;;;5.10;;
74064;SDS011;62421;51.412;5.432;2024-03-23T01:37:40;19.77;;;4.30;;
74064;SDS011;62421;51.412;5.432;2024-03-23T01:40:05;22.77;;;4.50;;
74064;SDS011;62421;51.412;5.432;2024-03-23T01:42:31;13.68;;;3.80;;
74064;SDS011;62421;51.412;5.432;2024-03-23T01:44:56;15.53;;;4.37;;
74064;SDS011;62421;51.412;5.432;2024-03-23T01:47:21;18.70;;;4.23;;
74064;SDS011;62421;51.412;5.432;2024-03-23T01:49:47;13.37;;;4.40;;
74064;SDS011;62421;51.412;5.432;2024-03-23T01:52:12;19.23;;;5.23;;
74064;SDS011;62421;51.412;5.432;2024-03-23T01:54:38;17.07;;;4.17;;
74064;SDS011;62421;51.412;5.432;2024-03-23T01:57:04;12.93;;;4.25;;
74064;SDS011;62421;51.412;5.432;2024-03-23T01:59:29;16.27;;;4.67;;
74064;SDS011;62421;51.412;5.432;2024-03-23T02:01:55;22.30;;;5.90;;
74064;SDS011;62421;51.412;5.432;2024-03-23T02:04:20;17.83;;;5.67;;
74064;SDS011;62421;51.412;5.432;2024-03-23T02:06:45;26.30;;;5.68;;
74064;SDS011;62421;51.412;5.432;2024-03-23T02:09:10;19.75;;;5.88;;
74064;SDS011;62421;51.412;5.432;2024-03-23T02:11:36;12.17;;;4.43;;
74064;SDS011;62421;51.412;5.432;2024-03-23T02:14:01;16.83;;;4.33;;
74064;SDS011;62421;51.412;5.432;2024-03-23T02:16:27;17.93;;;4.07;;
74064;SDS011;62421;51.412;5.432;2024-03-23T02:18:52;17.50;;;4.83;;
74064;SDS011;62421;51.412;5.432;2024-03-23T02:21:17;14.97;;;4.63;;
74064;SDS011;62421;51.412;5.432;2024-03-23T02:23:43;13.43;;;4.23;;
74064;SDS011;62421;51.412;5.432;2024-03-23T02:26:08;15.53;;;4.40;;
74064;SDS011;62421;51.412;5.432;2024-03-23T02:28:33;11.60;;;4.60;;
74064;SDS011;62421;51.412;5.432;2024-03-23T02:30:58;19.37;;;5.43;;
74064;SDS011;62421;51.412;5.432;2024-03-23T02:33:26;22.08;;;5.32;;
74064;SDS011;62421;51.412;5.432;2024-03-23T02:35:55;17.90;;;4.87;;
74064;SDS011;62421;51.412;5.432;2024-03-23T02:38:21;13.02;;;4.60;;
74064;SDS011;62421;51.412;5.432;2024-03-23T02:40:46;17.67;;;6.00;;
74064;SDS011;62421;51.412;5.432;2024-03-23T02:43:11;20.63;;;5.03;;
74064;SDS011;62421;51.412;5.432;2024-03-23T02:45:37;22.77;;;5.13;;
74064;SDS011;62421;51.412;5.432;2024-03-23T02:48:02;18.13;;;5.27;;
74064;SDS011;62421;51.412;5.432;2024-03-23T02:50:28;20.70;;;5.88;;
74064;SDS011;62421;51.412;5.432;2024-03-23T02:52:54;13.10;;;4.30;;
74064;SDS011;62421;51.412;5.432;2024-03-23T02:55:19;24.30;;;5.17;;
74064;SDS011;62421;51.412;5.432;2024-03-23T02:57:44;16.97;;;4.43;;
74064;SDS011;62421;51.412;5.432;2024-03-23T03:00:10;17.73;;;4.73;;
74064;SDS011;62421;51.412;5.432;2024-03-23T03:02:36;18.95;;;5.50;;
74064;SDS011;62421;51.412;5.432;2024-03-23T03:05:02;13.23;;;4.28;;
74064;SDS011;62421;51.412;5.432;2024-03-23T03:07:29;15.27;;;4.20;;
74064;SDS011;62421;51.412;5.432;2024-03-23T03:09:55;18.35;;;3.90;;
74064;SDS011;62421;51.412;5.432;2024-03-23T03:12:20;14.45;;;4.30;;
74064;SDS011;62421;51.412;5.432;2024-03-23T03:14:45;17.17;;;4.38;;
74064;SDS011;62421;51.412;5.432;2024-03-23T03:17:11;17.77;;;5.47;;
74064;SDS011;62421;51.412;5.432;2024-03-23T03:19:36;18.40;;;3.90;;
74064;SDS011;62421;51.412;5.432;2024-03-23T03:22:01;14.50;;;4.83;;
74064;SDS011;62421;51.412;5.432;2024-03-23T03:24:27;13.60;;;4.27;;
74064;SDS011;62421;51.412;5.432;2024-03-23T03:26:52;14.07;;;4.53;;
74064;SDS011;62421;51.412;5.432;2024-03-23T03:29:17;15.40;;;3.90;;
74064;SDS011;62421;51.412;5.432;2024-03-23T03:31:43;12.33;;;3.17;;
74064;SDS011;62421;51.412;5.432;2024-03-23T03:34:09;10.75;;;3.22;;
74064;SDS011;62421;51.412;5.432;2024-03-23T03:36:34;16.07;;;3.83;;
74064;SDS011;62421;51.412;5.432;2024-03-23T03:38:59;14.17;;;4.00;;
74064;SDS011;62421;51.412;5.432;2024-03-23T03:41:25;22.87;;;4.50;;
74064;SDS011;62421;51.412;5.432;2024-03-23T03:43:50;10.27;;;3.72;;
74064;SDS011;62421;51.412;5.432;2024-03-23T03:46:16;18.27;;;4.10;;
74064;SDS011;62421;51.412;5.432;2024-03-23T03:48:41;11.13;;;3.87;;
74064;SDS011;62421;51.412;5.432;2024-03-23T03:51:07;12.10;;;4.03;;
74064;SDS011;62421;51.412;5.432;2024-03-23T03:53:32;21.83;;;4.00;;
74064;SDS011;62421;51.412;5.432;2024-03-23T03:56:00;16.97;;;4.03;;
74064;SDS011;62421;51.412;5.432;2024-03-23T03:58:27;12.90;;;4.53;;
74064;SDS011;62421;51.412;5.432;2024-03-23T04:00:52;12.20;;;3.77;;
74064;SDS011;62421;51.412;5.432;2024-03-23T04:03:17;11.57;;;4.10;;
74064;SDS011;62421;51.412;5.432;2024-03-23T04:05:42;16.40;;;4.47;;
74064;SDS011;62421;51.412;5.432;2024-03-23T04:08:08;14.23;;;5.27;;
74064;SDS011;62421;51.412;5.432;2024-03-23T04:10:33;16.00;;;4.47;;
74064;SDS011;62421;51.412;5.432;2024-03-23T04:12:59;13.98;;;4.53;;
74064;SDS011;62421;51.412;5.432;2024-03-23T04:15:25;22.00;;;5.53;;
74064;SDS011;62421;51.412;5.432;2024-03-23T04:17:51;18.10;;;5.27;;
74064;SDS011;62421;51.412;5.432;2024-03-23T04:20:16;18.77;;;5.07;;
74064;SDS011;62421;51.412;5.432;2024-03-23T04:22:42;20.67;;;5.57;;
74064;SDS011;62421;51.412;5.432;2024-03-23T04:25:08;19.33;;;5.75;;
74064;SDS011;62421;51.412;5.432;2024-03-23T04:27:35;21.08;;;6.00;;
74064;SDS011;62421;51.412;5.432;2024-03-23T04:30:01;18.52;;;5.22;;
74064;SDS011;62421;51.412;5.432;2024-03-23T04:32:29;10.60;;;4.67;;
74064;SDS011;62421;51.412;5.432;2024-03-23T04:34:55;17.05;;;5.63;;
74064;SDS011;62421;51.412;5.432;2024-03-23T04:37:21;16.27;;;5.70;;
74064;SDS011;62421;51.412;5.432;2024-03-23T04:39:46;22.63;;;6.93;;
74064;SDS011;62421;51.412;5.432;2024-03-23T04:42:14;19.50;;;6.60;;
74064;SDS011;62421;51.412;5.432;2024-03-23T04:44:40;27.77;;;7.63;;
74064;SDS011;62421;51.412;5.432;2024-03-23T04:47:05;21.20;;;7.53;;
74064;SDS011;62421;51.412;5.432;2024-03-23T04:49:30;19.57;;;8.00;;
74064;SDS011;62421;51.412;5.432;2024-03-23T04:51:56;25.83;;;8.60;;
74064;SDS011;62421;51.412;5.432;2024-03-23T04:54:21;24.93;;;8.63;;
74064;SDS011;62421;51.412;5.432;2024-03-23T04:56:46;29.47;;;8.90;;
74064;SDS011;62421;51.412;5.432;2024-03-23T04:59:12;22.15;;;8.18;;
74064;SDS011;62421;51.412;5.432;2024-03-23T05:01:37;27.00;;;8.85;;
74064;SDS011;62421;51.412;5.432;2024-03-23T05:04:05;26.53;;;8.37;;
74064;SDS011;62421;51.412;5.432;2024-03-23T05:06:30;27.17;;;9.00;;
74064;SDS011;62421;51.412;5.432;2024-03-23T05:08:56;26.05;;;8.02;;
74064;SDS011;62421;51.412;5.432;2024-03-23T05:11:21;24.97;;;8.07;;
74064;SDS011;62421;51.412;5.432;2024-03-23T05:13:46;22.63;;;7.93;;
74064;SDS011;62421;51.412;5.432;2024-03-23T05:16:12;25.83;;;8.73;;
74064;SDS011;62421;51.412;5.432;2024-03-23T05:18:37;21.30;;;8.53;;
74064;SDS011;62421;51.412;5.432;2024-03-23T05:21:02;31.63;;;8.40;;
74064;SDS011;62421;51.412;5.432;2024-03-23T05:23:28;26.33;;;7.87;;
74064;SDS011;62421;51.412;5.432;2024-03-23T05:25:54;34.58;;;8.63;;
74064;SDS011;62421;51.412;5.432;2024-03-23T05:28:20;27.90;;;8.85;;
74064;SDS011;62421;51.412;5.432;2024-03-23T05:30:54;30.08;;;8.73;;
74064;SDS011;62421;51.412;5.432;2024-03-23T05:33:20;33.10;;;8.45;;
74064;SDS011;62421;51.412;5.432;2024-03-23T05:35:46;29.00;;;7.88;;
74064;SDS011;62421;51.412;5.432;2024-03-23T05:38:13;24.77;;;7.30;;
74064;SDS011;62421;51.412;5.432;2024-03-23T05:40:38;35.15;;;7.80;;
74064;SDS011;62421;51.412;5.432;2024-03-23T05:43:05;33.45;;;7.75;;
74064;SDS011;62421;51.412;5.432;2024-03-23T05:45:31;27.02;;;7.55;;
74064;SDS011;62421;51.412;5.432;2024-03-23T05:47:56;19.87;;;7.17;;
74064;SDS011;62421;51.412;5.432;2024-03-23T05:50:22;27.67;;;8.10;;
74064;SDS011;62421;51.412;5.432;2024-03-23T05:52:48;26.00;;;7.73;;
74064;SDS011;62421;51.412;5.432;2024-03-23T05:55:14;26.95;;;8.18;;
74064;SDS011;62421;51.412;5.432;2024-03-23T05:57:39;26.83;;;7.33;;
74064;SDS011;62421;51.412;5.432;2024-03-23T06:00:05;27.42;;;8.25;;
74064;SDS011;62421;51.412;5.432;2024-03-23T06:02:35;20.23;;;7.53;;
74064;SDS011;62421;51.412;5.432;2024-03-23T06:05:00;27.37;;;7.53;;
74064;SDS011;62421;51.412;5.432;2024-03-23T06:07:27;28.90;;;8.20;;
74064;SDS011;62421;51.412;5.432;2024-03-23T06:09:52;20.10;;;6.27;;
74064;SDS011;62421;51.412;5.432;2024-03-23T06:12:18;30.77;;;7.30;;
74064;SDS011;62421;51.412;5.432;2024-03-23T06:14:43;22.05;;;6.45;;
74064;SDS011;62421;51.412;5.432;2024-03-23T06:17:08;23.02;;;6.72;;
74064;SDS011;62421;51.412;5.432;2024-03-23T06:19:33;22.98;;;6.57;;
74064;SDS011;62421;51.412;5.432;2024-03-23T06:21:59;23.00;;;6.83;;
74064;SDS011;62421;51.412;5.432;2024-03-23T06:24:25;23.70;;;6.50;;
74064;SDS011;62421;51.412;5.432;2024-03-23T06:26:52;31.00;;;8.27;;
74064;SDS011;62421;51.412;5.432;2024-03-23T06:29:26;26.75;;;8.30;;
74064;SDS011;62421;51.412;5.432;2024-03-23T06:31:53;20.27;;;6.93;;
74064;SDS011;62421;51.412;5.432;2024-03-23T06:34:19;29.00;;;7.53;;
74064;SDS011;62421;51.412;5.432;2024-03-23T06:36:47;28.42;;;7.53;;
74064;SDS011;62421;51.412;5.432;2024-03-23T06:39:12;29.63;;;7.17;;
74064;SDS011;62421;51.412;5.432;2024-03-23T06:41:40;26.77;;;7.13;;
74064;SDS011;62421;51.412;5.432;2024-03-23T06:44:07;34.05;;;8.15;;
74064;SDS011;62421;51.412;5.432;2024-03-23T06:46:32;31.50;;;7.77;;
74064;SDS011;62421;51.412;5.432;2024-03-23T06:48:57;24.57;;;7.23;;
74064;SDS011;62421;51.412;5.432;2024-03-23T06:51:22;19.03;;;6.93;;
74064;SDS011;62421;51.412;5.432;2024-03-23T06:53:49;22.33;;;7.37;;
74064;SDS011;62421;51.412;5.432;2024-03-23T06:56:15;19.60;;;7.30;;
74064;SDS011;62421;51.412;5.432;2024-03-23T06:58:40;19.67;;;5.88;;
74064;SDS011;62421;51.412;5.432;2024-03-23T07:01:05;25.98;;;7.25;;
74064;SDS011;62421;51.412;5.432;2024-03-23T07:03:32;20.90;;;6.07;;
74064;SDS011;62421;51.412;5.432;2024-03-23T07:05:57;16.17;;;5.93;;
74064;SDS011;62421;51.412;5.432;2024-03-23T07:08:23;26.67;;;6.72;;
74064;SDS011;62421;51.412;5.432;2024-03-23T07:10:49;21.37;;;5.97;;
74064;SDS011;62421;51.412;5.432;2024-03-23T07:13:14;21.98;;;7.22;;
74064;SDS011;62421;51.412;5.432;2024-03-23T07:15:40;25.17;;;6.53;;
74064;SDS011;62421;51.412;5.432;2024-03-23T07:18:05;26.60;;;6.27;;
74064;SDS011;62421;51.412;5.432;2024-03-23T07:20:30;29.83;;;7.33;;
74064;SDS011;62421;51.412;5.432;2024-03-23T07:22:56;27.70;;;7.00;;
74064;SDS011;62421;51.412;5.432;2024-03-23T07:25:22;18.98;;;6.35;;
74064;SDS011;62421;51.412;5.432;2024-03-23T07:27:48;17.13;;;5.93;;
74064;SDS011;62421;51.412;5.432;2024-03-23T07:30:14;25.70;;;5.07;;
74064;SDS011;62421;51.412;5.432;2024-03-23T07:32:40;20.53;;;5.43;;
74064;SDS011;62421;51.412;5.432;2024-03-23T07:35:05;24.00;;;4.50;;
74064;SDS011;62421;51.412;5.432;2024-03-23T07:37:30;14.88;;;5.05;;
74064;SDS011;62421;51.412;5.432;2024-03-23T07:39:56;21.03;;;4.37;;
74064;SDS011;62421;51.412;5.432;2024-03-23T07:42:22;20.98;;;5.32;;
74064;SDS011;62421;51.412;5.432;2024-03-23T07:44:48;21.70;;;4.40;;
74064;SDS011;62421;51.412;5.432;2024-03-23T07:47:14;18.67;;;5.18;;
74064;SDS011;62421;51.412;5.432;2024-03-23T07:49:39;23.13;;;4.60;;
74064;SDS011;62421;51.412;5.432;2024-03-23T07:52:05;22.07;;;4.47;;
74064;SDS011;62421;51.412;5.432;2024-03-23T07:54:30;15.10;;;5.60;;
74064;SDS011;62421;51.412;5.432;2024-03-23T07:56:55;12.70;;;3.37;;
74064;SDS011;62421;51.412;5.432;2024-03-23T07:59:21;17.67;;;4.17;;
74064;SDS011;62421;51.412;5.432;2024-03-23T08:01:46;17.40;;;4.10;;
74064;SDS011;62421;51.412;5.432;2024-03-23T08:04:11;13.73;;;3.27;;
74064;SDS011;62421;51.412;5.432;2024-03-23T08:06:37;16.57;;;3.60;;
74064;SDS011;62421;51.412;5.432;2024-03-23T08:09:03;14.68;;;3.92;;
74064;SDS011;62421;51.412;5.432;2024-03-23T08:11:29;20.27;;;5.43;;
74064;SDS011;62421;51.412;5.432;2024-03-23T08:13:56;10.52;;;3.25;;
74064;SDS011;62421;51.412;5.432;2024-03-23T08:16:22;22.77;;;3.30;;
74064;SDS011;62421;51.412;5.432;2024-03-23T08:18:47;14.00;;;3.57;;
74064;SDS011;62421;51.412;5.432;2024-03-23T08:21:13;23.60;;;4.00;;
74064;SDS011;62421;51.412;5.432;2024-03-23T08:23:39;20.38;;;4.28;;
74064;SDS011;62421;51.412;5.432;2024-03-23T08:26:11;17.05;;;4.22;;
74064;SDS011;62421;51.412;5.432;2024-03-23T08:28:38;17.58;;;3.45;;
74064;SDS011;62421;51.412;5.432;2024-03-23T08:31:04;24.00;;;3.83;;
74064;SDS011;62421;51.412;5.432;2024-03-23T08:33:31;21.48;;;4.10;;
74064;SDS011;62421;51.412;5.432;2024-03-23T08:36:00;12.53;;;3.47;;
74064;SDS011;62421;51.412;5.432;2024-03-23T08:38:27;10.50;;;2.85;;
74064;SDS011;62421;51.412;5.432;2024-03-23T08:40:56;18.45;;;3.70;;
74064;SDS011;62421;51.412;5.432;2024-03-23T08:43:22;12.63;;;3.80;;
74064;SDS011;62421;51.412;5.432;2024-03-23T08:45:48;17.55;;;3.70;;
74064;SDS011;62421;51.412;5.432;2024-03-23T08:48:13;11.30;;;2.70;;
74064;SDS011;62421;51.412;5.432;2024-03-23T08:50:38;16.70;;;3.70;;
74064;SDS011;62421;51.412;5.432;2024-03-23T08:53:04;13.67;;;2.87;;
74064;SDS011;62421;51.412;5.432;2024-03-23T08:55:29;16.67;;;2.67;;
74064;SDS011;62421;51.412;5.432;2024-03-23T08:57:55;11.53;;;2.67;;
74064;SDS011;62421;51.412;5.432;2024-03-23T09:00:21;6.82;;;2.65;;
74064;SDS011;62421;51.412;5.432;2024-03-23T09:02:49;12.87;;;2.67;;
74064;SDS011;62421;51.412;5.432;2024-03-23T09:05:15;9.73;;;2.63;;
74064;SDS011;62421;51.412;5.432;2024-03-23T09:07:40;19.13;;;3.57;;
74064;SDS011;62421;51.412;5.432;2024-03-23T09:10:06;18.57;;;3.57;;
74064;SDS011;62421;51.412;5.432;2024-03-23T09:12:32;6.47;;;1.80;;
74064;SDS011;62421;51.412;5.432;2024-03-23T09:14:58;7.53;;;1.92;;
74064;SDS011;62421;51.412;5.432;2024-03-23T09:17:24;8.57;;;2.00;;
74064;SDS011;62421;51.412;5.432;2024-03-23T09:19:49;2.83;;;1.30;;
74064;SDS011;62421;51.412;5.432;2024-03-23T09:22:14;6.50;;;1.67;;
74064;SDS011;62421;51.412;5.432;2024-03-23T09:24:40;9.10;;;2.10;;
74064;SDS011;62421;51.412;5.432;2024-03-23T09:27:05;4.67;;;1.20;;
74064;SDS011;62421;51.412;5.432;2024-03-23T09:29:31;7.70;;;2.20;;
74064;SDS011;62421;51.412;5.432;2024-03-23T09:31:56;8.43;;;2.10;;
74064;SDS011;62421;51.412;5.432;2024-03-23T09:34:21;8.60;;;1.97;;
74064;SDS011;62421;51.412;5.432;2024-03-23T09:36:47;16.50;;;2.40;;
74064;SDS011;62421;51.412;5.432;2024-03-23T09:39:15;9.98;;;1.83;;
74064;SDS011;62421;51.412;5.432;2024-03-23T09:41:40;15.53;;;3.20;;
74064;SDS011;62421;51.412;5.432;2024-03-23T09:44:06;8.73;;;2.10;;
74064;SDS011;62421;51.412;5.432;2024-03-23T09:46:32;9.27;;;1.73;;
74064;SDS011;62421;51.412;5.432;2024-03-23T09:49:02;15.37;;;3.00;;
74064;SDS011;62421;51.412;5.432;2024-03-23T09:51:29;13.07;;;2.65;;
74064;SDS011;62421;51.412;5.432;2024-03-23T09:53:55;10.70;;;3.30;;
74064;SDS011;62421;51.412;5.432;2024-03-23T09:56:22;11.93;;;4.07;;
74064;SDS011;62421;51.412;5.432;2024-03-23T09:58:48;10.02;;;2.90;;
74064;SDS011;62421;51.412;5.432;2024-03-23T10:01:14;8.67;;;2.87;;
74064;SDS011;62421;51.412;5.432;2024-03-23T10:03:43;12.80;;;3.10;;
74064;SDS011;62421;51.412;5.432;2024-03-23T10:06:12;8.83;;;2.63;;
74064;SDS011;62421;51.412;5.432;2024-03-23T10:08:37;6.47;;;2.33;;
74064;SDS011;62421;51.412;5.432;2024-03-23T10:11:15;8.37;;;2.00;;
74064;SDS011;62421;51.412;5.432;2024-03-23T10:13:42;8.17;;;2.00;;
74064;SDS011;62421;51.412;5.432;2024-03-23T10:16:08;8.85;;;1.75;;
74064;SDS011;62421;51.412;5.432;2024-03-23T10:18:37;9.13;;;2.00;;
74064;SDS011;62421;51.412;5.432;2024-03-23T10:23:35;8.20;;;1.70;;
74064;SDS011;62421;51.412;5.432;2024-03-23T10:26:14;11.03;;;2.10;;
74064;SDS011;62421;51.412;5.432;2024-03-23T10:31:17;8.75;;;2.10;;
74064;SDS011;62421;51.412;5.432;2024-03-23T10:33:44;8.38;;;2.67;;
74064;SDS011;62421;51.412;5.432;2024-03-23T10:36:11;14.63;;;3.13;;
74064;SDS011;62421;51.412;5.432;2024-03-23T10:38:36;10.00;;;2.40;;
74064;SDS011;62421;51.412;5.432;2024-03-23T10:41:05;10.15;;;2.25;;
74064;SDS011;62421;51.412;5.432;2024-03-23T10:43:30;11.00;;;2.15;;
74064;SDS011;62421;51.412;5.432;2024-03-23T10:45:58;9.83;;;2.90;;
74064;SDS011;62421;51.412;5.432;2024-03-23T10:48:23;9.55;;;2.78;;
74064;SDS011;62421;51.412;5.432;2024-03-23T10:50:48;17.93;;;2.83;;
74064;SDS011;62421;51.412;5.432;2024-03-23T10:53:14;13.43;;;2.87;;
74064;SDS011;62421;51.412;5.432;2024-03-23T10:55:42;10.20;;;2.25;;
74064;SDS011;62421;51.412;5.432;2024-03-23T10:58:08;7.43;;;2.78;;
74064;SDS011;62421;51.412;5.432;2024-03-23T11:00:37;7.60;;;3.00;;
74064;SDS011;62421;51.412;5.432;2024-03-23T11:05:58;7.97;;;2.90;;
74064;SDS011;62421;51.412;5.432;2024-03-23T11:08:31;9.00;;;3.05;;
74064;SDS011;62421;51.412;5.432;2024-03-23T11:13:47;10.23;;;2.33;;
74064;SDS011;62421;51.412;5.432;2024-03-23T11:18:46;6.78;;;2.03;;
74064;SDS011;62421;51.412;5.432;2024-03-23T11:21:11;6.17;;;1.40;;
74064;SDS011;62421;51.412;5.432;2024-03-23T11:24:15;8.60;;;1.75;;
74064;SDS011;62421;51.412;5.432;2024-03-23T11:26:40;9.20;;;1.63;;
74064;SDS011;62421;51.412;5.432;2024-03-23T11:29:09;8.20;;;1.73;;
74064;SDS011;62421;51.412;5.432;2024-03-23T11:31:36;4.75;;;2.13;;
74064;SDS011;62421;51.412;5.432;2024-03-23T11:34:03;5.63;;;1.80;;
74064;SDS011;62421;51.412;5.432;2024-03-23T11:36:30;10.55;;;2.13;;
74064;SDS011;62421;51.412;5.432;2024-03-23T11:38:55;7.07;;;2.47;;
74064;SDS011;62421;51.412;5.432;2024-03-23T11:41:20;9.87;;;2.97;;
74064;SDS011;62421;51.412;5.432;2024-03-23T11:43:46;6.50;;;1.90;;
74064;SDS011;62421;51.412;5.432;2024-03-23T11:46:11;9.47;;;2.03;;
74064;SDS011;62421;51.412;5.432;2024-03-23T11:48:49;6.05;;;2.08;;
74064;SDS011;62421;51.412;5.432;2024-03-23T11:51:15;7.57;;;1.70;;
74064;SDS011;62421;51.412;5.432;2024-03-23T11:53:42;3.45;;;1.55;;
74064;SDS011;62421;51.412;5.432;2024-03-23T11:56:07;6.70;;;1.25;;
74064;SDS011;62421;51.412;5.432;2024-03-23T11:58:34;5.33;;;1.67;;
74064;SDS011;62421;51.412;5.432;2024-03-23T12:01:00;7.28;;;1.42;;
74064;SDS011;62421;51.412;5.432;2024-03-23T12:03:28;2.15;;;1.02;;
74064;SDS011;62421;51.412;5.432;2024-03-23T12:06:03;5.22;;;1.67;;
74064;SDS011;62421;51.412;5.432;2024-03-23T12:08:33;4.28;;;1.98;;
74064;SDS011;62421;51.412;5.432;2024-03-23T12:13:31;3.05;;;1.55;;
74064;SDS011;62421;51.412;5.432;2024-03-23T12:16:08;5.95;;;1.80;;
74064;SDS011;62421;51.412;5.432;2024-03-23T12:18:47;7.60;;;1.97;;
74064;SDS011;62421;51.412;5.432;2024-03-23T12:21:14;6.15;;;1.30;;
74064;SDS011;62421;51.412;5.432;2024-03-23T12:23:39;10.60;;;1.67;;
74064;SDS011;62421;51.412;5.432;2024-03-23T12:26:05;8.73;;;1.70;;
74064;SDS011;62421;51.412;5.432;2024-03-23T12:28:31;10.50;;;1.67;;
74064;SDS011;62421;51.412;5.432;2024-03-23T12:30:57;7.95;;;2.22;;
74064;SDS011;62421;51.412;5.432;2024-03-23T12:33:24;6.32;;;1.67;;
74064;SDS011;62421;51.412;5.432;2024-03-23T12:35:52;13.27;;;1.97;;
74064;SDS011;62421;51.412;5.432;2024-03-23T12:38:18;5.18;;;1.38;;
74064;SDS011;62421;51.412;5.432;2024-03-23T12:40:47;7.43;;;1.30;;
74064;SDS011;62421;51.412;5.432;2024-03-23T12:43:13;2.83;;;1.10;;
74064;SDS011;62421;51.412;5.432;2024-03-23T12:45:39;4.72;;;1.30;;
74064;SDS011;62421;51.412;5.432;2024-03-23T12:48:04;2.40;;;1.37;;
74064;SDS011;62421;51.412;5.432;2024-03-23T12:50:29;4.10;;;0.80;;
74064;SDS011;62421;51.412;5.432;2024-03-23T12:52:55;1.90;;;1.03;;
74064;SDS011;62421;51.412;5.432;2024-03-23T12:55:20;3.30;;;1.00;;
74064;SDS011;62421;51.412;5.432;2024-03-23T12:57:46;1.65;;;1.02;;
74064;SDS011;62421;51.412;5.432;2024-03-23T13:00:12;2.40;;;1.43;;
74064;SDS011;62421;51.412;5.432;2024-03-23T13:02:38;1.73;;;1.10;;
74064;SDS011;62421;51.412;5.432;2024-03-23T13:05:04;2.53;;;1.10;;
74064;SDS011;62421;51.412;5.432;2024-03-23T13:07:30;1.47;;;0.70;;
74064;SDS011;62421;51.412;5.432;2024-03-23T13:09:55;3.15;;;0.98;;
74064;SDS011;62421;51.412;5.432;2024-03-23T13:12:21;3.53;;;1.42;;
74064;SDS011;62421;51.412;5.432;2024-03-23T13:14:47;5.13;;;1.50;;
74064;SDS011;62421;51.412;5.432;2024-03-23T13:17:13;5.93;;;1.83;;
74064;SDS011;62421;51.412;5.432;2024-03-23T13:19:39;5.28;;;1.95;;
74064;SDS011;62421;51.412;5.432;2024-03-23T13:22:04;5.27;;;1.30;;
74064;SDS011;62421;51.412;5.432;2024-03-23T13:24:30;6.80;;;1.93;;
74064;SDS011;62421;51.412;5.432;2024-03-23T13:26:56;6.93;;;1.27;;
74064;SDS011;62421;51.412;5.432;2024-03-23T13:29:22;9.38;;;1.88;;
74064;SDS011;62421;51.412;5.432;2024-03-23T13:31:48;8.73;;;2.20;;
74064;SDS011;62421;51.412;5.432;2024-03-23T13:34:15;5.70;;;2.00;;
74064;SDS011;62421;51.412;5.432;2024-03-23T13:36:42;5.60;;;1.40;;
74064;SDS011;62421;51.412;5.432;2024-03-23T13:39:11;4.00;;;1.35;;
74064;SDS011;62421;51.412;5.432;2024-03-23T13:41:38;3.53;;;1.47;;
74064;SDS011;62421;51.412;5.432;2024-03-23T13:44:05;5.40;;;1.50;;
74064;SDS011;62421;51.412;5.432;2024-03-23T13:46:30;4.68;;;1.85;;
74064;SDS011;62421;51.412;5.432;2024-03-23T13:48:56;6.27;;;1.33;;
74064;SDS011;62421;51.412;5.432;2024-03-23T13:51:24;6.07;;;1.30;;
74064;SDS011;62421;51.412;5.432;2024-03-23T13:53:52;12.15;;;1.83;;
74064;SDS011;62421;51.412;5.432;2024-03-23T13:56:22;15.63;;;2.25;;
74064;SDS011;62421;51.412;5.432;2024-03-23T13:58:47;11.80;;;1.77;;
74064;SDS011;62421;51.412;5.432;2024-03-23T14:01:13;12.33;;;2.30;;
74064;SDS011;62421;51.412;5.432;2024-03-23T14:03:40;8.20;;;1.83;;
74064;SDS011;62421;51.412;5.432;2024-03-23T14:06:06;9.63;;;1.77;;
74064;SDS011;62421;51.412;5.432;2024-03-23T14:08:32;13.57;;;2.97;;
74064;SDS011;62421;51.412;5.432;2024-03-23T14:11:00;9.75;;;2.70;;
74064;SDS011;62421;51.412;5.432;2024-03-23T14:13:25;12.93;;;2.73;;
74064;SDS011;62421;51.412;5.432;2024-03-23T14:15:55;6.53;;;1.75;;
74064;SDS011;62421;51.412;5.432;2024-03-23T14:18:21;5.07;;;2.10;;
74064;SDS011;62421;51.412;5.432;2024-03-23T14:20:49;11.52;;;2.13;;
74064;SDS011;62421;51.412;5.432;2024-03-23T14:23:15;6.65;;;2.10;;
74064;SDS011;62421;51.412;5.432;2024-03-23T14:25:41;11.00;;;2.33;;
74064;SDS011;62421;51.412;5.432;2024-03-23T14:28:06;8.43;;;2.10;;
74064;SDS011;62421;51.412;5.432;2024-03-23T14:30:38;3.83;;;1.83;;
74064;SDS011;62421;51.412;5.432;2024-03-23T14:33:04;6.13;;;2.20;;
74064;SDS011;62421;51.412;5.432;2024-03-23T14:35:29;9.10;;;2.13;;
74064;SDS011;62421;51.412;5.432;2024-03-23T14:37:54;6.43;;;2.03;;
74064;SDS011;62421;51.412;5.432;2024-03-23T14:40:20;5.43;;;2.10;;
74064;SDS011;62421;51.412;5.432;2024-03-23T14:42:45;5.20;;;1.93;;
74064;SDS011;62421;51.412;5.432;2024-03-23T14:45:10;7.83;;;2.10;;
74064;SDS011;62421;51.412;5.432;2024-03-23T14:47:36;6.90;;;1.98;;
74064;SDS011;62421;51.412;5.432;2024-03-23T14:50:02;11.50;;;1.77;;
74064;SDS011;62421;51.412;5.432;2024-03-23T14:52:27;9.80;;;1.97;;
74064;SDS011;62421;51.412;5.432;2024-03-23T14:54:54;9.40;;;2.03;;
74064;SDS011;62421;51.412;5.432;2024-03-23T14:57:21;8.80;;;2.45;;
74064;SDS011;62421;51.412;5.432;2024-03-23T14:59:46;4.87;;;2.03;;
74064;SDS011;62421;51.412;5.432;2024-03-23T15:02:11;10.33;;;2.50;;
74064;SDS011;62421;51.412;5.432;2024-03-23T15:04:38;11.75;;;2.45;;
74064;SDS011;62421;51.412;5.432;2024-03-23T15:07:06;9.13;;;2.47;;
74064;SDS011;62421;51.412;5.432;2024-03-23T15:09:32;5.47;;;1.97;;
74064;SDS011;62421;51.412;5.432;2024-03-23T15:11:57;7.07;;;1.90;;
74064;SDS011;62421;51.412;5.432;2024-03-23T15:14:23;4.97;;;1.80;;
74064;SDS011;62421;51.412;5.432;2024-03-23T15:16:49;5.60;;;1.92;;
74064;SDS011;62421;51.412;5.432;2024-03-23T15:19:15;5.85;;;1.58;;
74064;SDS011;62421;51.412;5.432;2024-03-23T15:21:42;5.20;;;1.40;;
74064;SDS011;62421;51.412;5.432;2024-03-23T15:24:08;6.78;;;1.77;;
74064;SDS011;62421;51.412;5.432;2024-03-23T15:26:35;5.28;;;2.10;;
74064;SDS011;62421;51.412;5.432;2024-03-23T15:29:02;6.65;;;1.67;;
74064;SDS011;62421;51.412;5.432;2024-03-23T15:31:27;5.67;;;1.80;;
74064;SDS011;62421;51.412;5.432;2024-03-23T15:33:54;5.30;;;1.98;;
74064;SDS011;62421;51.412;5.432;2024-03-23T15:36:19;6.90;;;1.70;;
74064;SDS011;62421;51.412;5.432;2024-03-23T15:38:44;4.40;;;1.63;;
74064;SDS011;62421;51.412;5.432;2024-03-23T15:41:10;4.93;;;1.70;;